createdAt,value
2023-04-07T00:00:39.720Z,0.62
2023-04-07T00:01:39.791Z,0.72
2023-04-07T00:02:40.437Z,0.72
2023-04-07T00:03:39.825Z,0.70
2023-04-07T00:04:39.714Z,0.80
2023-04-07T00:05:39.655Z,0.83
2023-04-07T00:06:39.649Z,0.76
2023-04-07T00:07:52.310Z,0.75
2023-04-07T00:08:40.631Z,0.75
2023-04-07T00:09:39.627Z,0.61
2023-04-07T00:10:39.599Z,0.62
2023-04-07T00:11:39.598Z,0.70
2023-04-07T00:12:39.602Z,0.66
2023-04-07T00:13:39.650Z,0.60
2023-04-07T00:14:39.548Z,0.66
2023-04-07T00:15:39.612Z,0.69
2023-04-07T00:16:39.531Z,0.70
2023-04-07T00:17:39.636Z,0.75
2023-04-07T00:18:39.559Z,0.70
2023-04-07T00:19:39.501Z,0.76
2023-04-07T00:20:39.595Z,0.83
2023-04-07T00:21:39.872Z,0.75
2023-04-07T00:22:39.501Z,0.75
2023-04-07T00:23:40.381Z,0.72
2023-04-07T00:24:39.549Z,0.70
2023-04-07T00:25:39.478Z,0.76
2023-04-07T00:26:39.548Z,0.69
2023-04-07T00:27:39.553Z,0.75
2023-04-07T00:28:39.405Z,0.72
2023-04-07T00:29:39.511Z,0.75
2023-04-07T00:30:39.390Z,0.78
2023-04-07T00:31:39.482Z,0.87
2023-04-07T00:32:39.390Z,0.91
2023-04-07T00:33:39.379Z,0.98
2023-04-07T00:34:39.344Z,0.97
2023-04-07T00:35:39.347Z,0.83
2023-04-07T00:36:39.325Z,0.88
2023-04-07T00:37:39.305Z,0.84
2023-04-07T00:38:39.299Z,0.96
2023-04-07T00:39:39.305Z,0.91
2023-04-07T00:40:39.276Z,0.91
2023-04-07T00:41:39.271Z,0.93
2023-04-07T00:42:39.246Z,0.91
2023-04-07T00:43:39.235Z,0.93
2023-04-07T00:44:39.248Z,0.90
2023-04-07T00:45:39.218Z,0.98
2023-04-07T00:46:39.243Z,1.04
2023-04-07T00:47:39.260Z,1.05
2023-04-07T00:48:39.177Z,1.08
2023-04-07T00:49:39.204Z,1.20
2023-04-07T00:50:39.180Z,1.16
2023-04-07T00:51:39.153Z,1.26
2023-04-07T00:52:39.168Z,1.30
2023-04-07T00:53:39.120Z,1.30
2023-04-07T00:54:39.112Z,1.32
2023-04-07T00:55:39.134Z,1.47
2023-04-07T00:56:39.098Z,1.48
2023-04-07T00:57:39.113Z,1.50
2023-04-07T00:58:39.092Z,1.51
2023-04-07T00:59:39.104Z,1.55
2023-04-07T01:00:39.052Z,1.65
2023-04-07T01:01:39.146Z,1.60
2023-04-07T01:02:39.182Z,1.60
2023-04-07T01:03:39.194Z,1.66
2023-04-07T01:04:39.034Z,1.70
2023-04-07T01:05:39.003Z,1.68
2023-04-07T01:06:38.979Z,1.73
2023-04-07T01:07:38.980Z,1.69
2023-04-07T01:08:38.972Z,1.81
2023-04-07T01:09:38.968Z,1.79
2023-04-07T01:10:38.932Z,1.79
2023-04-07T01:11:38.936Z,1.73
2023-04-07T01:12:38.918Z,1.81
2023-04-07T01:13:38.919Z,1.86
2023-04-07T01:14:38.941Z,1.91
2023-04-07T01:15:38.902Z,1.91
2023-04-07T01:16:38.943Z,1.76
2023-04-07T01:17:38.860Z,1.72
2023-04-07T01:18:38.945Z,1.66
2023-04-07T01:19:38.836Z,1.73
2023-04-07T01:20:38.845Z,1.68
2023-04-07T01:21:38.848Z,1.60
2023-04-07T01:22:38.799Z,1.66
2023-04-07T01:23:38.790Z,1.62
2023-04-07T01:24:38.783Z,1.70
2023-04-07T01:25:38.776Z,1.70
2023-04-07T01:26:38.763Z,1.65
2023-04-07T01:27:38.796Z,1.70
2023-04-07T01:28:38.734Z,1.70
2023-04-07T01:29:38.752Z,1.73
2023-04-07T01:30:38.742Z,1.81
2023-04-07T01:31:38.736Z,1.76
2023-04-07T01:32:38.730Z,1.72
2023-04-07T01:33:38.721Z,1.79
2023-04-07T01:34:38.707Z,1.72
2023-04-07T01:35:38.659Z,1.70
2023-04-07T01:36:38.697Z,1.58
2023-04-07T01:37:38.702Z,1.52
2023-04-07T01:38:38.651Z,1.54
2023-04-07T01:39:38.673Z,1.48
2023-04-07T01:40:38.650Z,1.47
2023-04-07T01:41:38.616Z,1.45
2023-04-07T01:42:38.599Z,1.44
2023-04-07T01:43:38.627Z,1.34
2023-04-07T01:44:38.601Z,1.16
2023-04-07T01:45:38.578Z,1.12
2023-04-07T01:46:38.604Z,1.22
2023-04-07T01:47:38.621Z,1.18
2023-04-07T01:48:38.558Z,1.15
2023-04-07T01:49:38.537Z,1.16
2023-04-07T01:50:38.500Z,1.14
2023-04-07T01:51:38.491Z,1.14
2023-04-07T01:52:38.499Z,1.04
2023-04-07T01:53:38.465Z,1.06
2023-04-07T01:54:38.464Z,1.14
2023-04-07T01:55:38.481Z,1.09
2023-04-07T01:56:38.433Z,1.00
2023-04-07T01:57:38.430Z,1.04
2023-04-07T01:58:38.434Z,1.06
2023-04-07T01:59:38.397Z,1.02
2023-04-07T02:00:38.407Z,1.08
2023-04-07T02:01:38.615Z,0.98
2023-04-07T02:02:38.539Z,1.02
2023-04-07T02:03:38.425Z,1.09
2023-04-07T02:04:38.358Z,0.93
2023-04-07T02:05:38.337Z,0.93
2023-04-07T02:06:38.338Z,0.93
2023-04-07T02:07:38.337Z,0.96
2023-04-07T02:08:38.302Z,0.91
2023-04-07T02:09:38.354Z,1.00
2023-04-07T02:10:38.308Z,0.97
2023-04-07T02:11:38.276Z,1.04
2023-04-07T02:12:38.273Z,0.97
2023-04-07T02:13:38.251Z,0.97
2023-04-07T02:14:38.236Z,0.98
2023-04-07T02:15:38.265Z,0.97
2023-04-07T02:16:38.221Z,0.91
2023-04-07T02:17:38.270Z,0.96
2023-04-07T02:18:38.207Z,0.88
2023-04-07T02:19:38.188Z,0.91
2023-04-07T02:20:38.186Z,1.04
2023-04-07T02:21:38.168Z,0.98
2023-04-07T02:22:38.150Z,0.94
2023-04-07T02:23:38.162Z,0.96
2023-04-07T02:24:38.162Z,0.97
2023-04-07T02:25:38.187Z,1.06
2023-04-07T02:26:38.118Z,1.02
2023-04-07T02:27:38.120Z,1.06
2023-04-07T02:28:38.089Z,1.05
2023-04-07T02:29:38.097Z,1.14
2023-04-07T02:30:38.084Z,1.12
2023-04-07T02:31:38.116Z,1.20
2023-04-07T02:32:38.090Z,1.29
2023-04-07T02:33:38.062Z,1.34
2023-04-07T02:34:38.036Z,1.41
2023-04-07T02:35:38.026Z,1.45
2023-04-07T02:36:38.077Z,1.47
2023-04-07T02:37:37.984Z,1.47
2023-04-07T02:38:37.989Z,1.50
2023-04-07T02:39:38.062Z,1.58
2023-04-07T02:40:37.973Z,1.65
2023-04-07T02:41:37.939Z,1.65
2023-04-07T02:42:37.929Z,1.66
2023-04-07T02:43:37.919Z,1.70
2023-04-07T02:44:37.919Z,1.69
2023-04-07T02:45:37.919Z,1.77
2023-04-07T02:46:37.964Z,1.72
2023-04-07T02:47:37.928Z,1.76
2023-04-07T02:48:37.879Z,1.72
2023-04-07T02:49:37.866Z,1.81
2023-04-07T02:50:37.861Z,1.76
2023-04-07T02:51:37.841Z,1.65
2023-04-07T02:52:37.831Z,1.69
2023-04-07T02:53:37.831Z,1.63
2023-04-07T02:54:37.802Z,1.66
2023-04-07T02:55:37.786Z,1.60
2023-04-07T02:56:37.798Z,1.47
2023-04-07T02:57:37.788Z,1.41
2023-04-07T02:58:37.781Z,1.42
2023-04-07T02:59:37.744Z,1.33
2023-04-07T03:00:37.747Z,1.33
2023-04-07T03:01:37.814Z,1.30
2023-04-07T03:02:37.857Z,1.30
2023-04-07T03:03:37.875Z,1.30
2023-04-07T03:04:37.715Z,1.30
2023-04-07T03:05:37.700Z,1.30
2023-04-07T03:06:37.671Z,1.29
2023-04-07T03:07:37.666Z,1.32
2023-04-07T03:08:37.655Z,1.30
2023-04-07T03:09:37.657Z,1.30
2023-04-07T03:10:37.616Z,1.26
2023-04-07T03:11:37.610Z,1.22
2023-04-07T03:12:37.625Z,1.30
2023-04-07T03:13:37.582Z,1.36
2023-04-07T03:14:37.592Z,1.34
2023-04-07T03:15:37.600Z,1.34
2023-04-07T03:16:37.583Z,1.33
2023-04-07T03:17:37.577Z,1.32
2023-04-07T03:18:37.558Z,1.32
2023-04-07T03:19:37.543Z,1.33
2023-04-07T03:20:37.532Z,1.44
2023-04-07T03:21:37.556Z,1.48
2023-04-07T03:22:37.487Z,1.51
2023-04-07T03:23:37.493Z,1.52
2023-04-07T03:24:37.486Z,1.55
2023-04-07T03:25:37.457Z,1.58
2023-04-07T03:26:37.492Z,1.70
2023-04-07T03:27:37.443Z,1.65
2023-04-07T03:28:37.425Z,1.65
2023-04-07T03:29:37.429Z,1.70
2023-04-07T03:30:37.444Z,1.79
2023-04-07T03:31:37.412Z,1.88
2023-04-07T03:32:37.422Z,1.80
2023-04-07T03:33:37.427Z,1.88
2023-04-07T03:34:37.372Z,1.95
2023-04-07T03:35:37.357Z,1.98
2023-04-07T03:36:37.361Z,1.93
2023-04-07T03:37:37.386Z,1.93
2023-04-07T03:38:37.326Z,1.95
2023-04-07T03:39:37.339Z,1.91
2023-04-07T03:40:37.307Z,2.06
2023-04-07T03:41:37.281Z,2.09
2023-04-07T03:42:37.300Z,1.99
2023-04-07T03:43:37.278Z,2.05
2023-04-07T03:44:37.275Z,2.07
2023-04-07T03:45:37.250Z,2.03
2023-04-07T03:46:37.284Z,2.03
2023-04-07T03:47:37.293Z,2.14
2023-04-07T03:48:37.205Z,2.10
2023-04-07T03:49:37.211Z,2.14
2023-04-07T03:50:37.180Z,2.14
2023-04-07T03:51:37.184Z,2.16
2023-04-07T03:52:37.163Z,2.14
2023-04-07T03:53:37.189Z,2.14
2023-04-07T03:54:37.143Z,2.17
2023-04-07T03:55:37.175Z,2.16
2023-04-07T03:56:37.148Z,2.21
2023-04-07T03:57:37.107Z,2.25
2023-04-07T03:58:37.120Z,2.34
2023-04-07T03:59:37.089Z,2.30
2023-04-07T04:00:37.092Z,2.27
2023-04-07T04:01:37.168Z,2.39
2023-04-07T04:02:37.132Z,2.34
2023-04-07T04:03:37.252Z,2.41
2023-04-07T04:04:37.065Z,2.43
2023-04-07T04:05:37.018Z,2.45
2023-04-07T04:06:37.037Z,2.48
2023-04-07T04:07:37.034Z,2.41
2023-04-07T04:08:36.983Z,2.48
2023-04-07T04:09:36.998Z,2.56
2023-04-07T04:10:36.984Z,2.54
2023-04-07T04:11:36.958Z,2.61
2023-04-07T04:12:36.961Z,2.60
2023-04-07T04:13:36.929Z,2.52
2023-04-07T04:14:36.922Z,2.61
2023-04-07T04:15:36.949Z,2.63
2023-04-07T04:16:36.997Z,2.72
2023-04-07T04:17:36.938Z,2.69
2023-04-07T04:18:36.908Z,2.75
2023-04-07T04:19:36.865Z,2.81
2023-04-07T04:20:36.852Z,2.78
2023-04-07T04:21:36.844Z,2.87
2023-04-07T04:22:36.872Z,2.90
2023-04-07T04:23:36.833Z,2.90
2023-04-07T04:24:36.839Z,2.92
2023-04-07T04:25:36.830Z,2.89
2023-04-07T04:26:36.785Z,2.89
2023-04-07T04:27:36.783Z,2.92
2023-04-07T04:28:37.980Z,2.89
2023-04-07T04:29:36.767Z,2.90
2023-04-07T04:30:36.787Z,2.93
2023-04-07T04:31:36.755Z,3.00
2023-04-07T04:32:36.749Z,2.93
2023-04-07T04:33:36.724Z,3.05
2023-04-07T04:34:36.747Z,3.00
2023-04-07T04:35:36.708Z,3.06
2023-04-07T04:36:38.372Z,3.06
2023-04-07T04:37:36.662Z,3.14
2023-04-07T04:38:36.660Z,3.11
2023-04-07T04:39:36.678Z,3.11
2023-04-07T04:40:36.648Z,3.20
2023-04-07T04:41:36.648Z,3.23
2023-04-07T04:42:36.613Z,3.20
2023-04-07T04:43:36.617Z,3.20
2023-04-07T04:44:36.606Z,3.18
2023-04-07T04:45:36.595Z,3.32
2023-04-07T04:46:36.616Z,3.28
2023-04-07T04:47:36.608Z,3.32
2023-04-07T04:48:36.554Z,3.33
2023-04-07T04:49:36.540Z,3.40
2023-04-07T04:50:36.545Z,3.40
2023-04-07T04:51:36.520Z,3.32
2023-04-07T04:52:36.527Z,3.43
2023-04-07T04:53:36.490Z,3.33
2023-04-07T04:54:36.475Z,3.32
2023-04-07T04:55:36.497Z,3.54
2023-04-07T04:56:36.461Z,3.48
2023-04-07T04:57:36.483Z,3.45
2023-04-07T04:58:36.431Z,3.48
2023-04-07T04:59:36.427Z,3.61
2023-04-07T05:00:36.473Z,3.51
2023-04-07T05:01:36.415Z,3.43
2023-04-07T05:02:36.629Z,3.54
2023-04-07T05:03:36.567Z,3.60
2023-04-07T05:04:36.422Z,3.45
2023-04-07T05:05:36.358Z,3.45
2023-04-07T05:06:36.371Z,3.47
2023-04-07T05:07:36.345Z,3.40
2023-04-07T05:08:36.330Z,3.36
2023-04-07T05:09:36.322Z,3.35
2023-04-07T05:10:36.294Z,3.42
2023-04-07T05:11:36.286Z,3.33
2023-04-07T05:12:36.299Z,3.40
2023-04-07T05:13:36.279Z,3.39
2023-04-07T05:14:36.266Z,3.47
2023-04-07T05:15:36.282Z,3.47
2023-04-07T05:16:36.360Z,3.48
2023-04-07T05:17:36.289Z,3.58
2023-04-07T05:18:36.205Z,3.60
2023-04-07T05:19:36.199Z,3.57
2023-04-07T05:20:36.202Z,3.55
2023-04-07T05:21:36.224Z,3.54
2023-04-07T05:22:36.160Z,3.68
2023-04-07T05:23:36.183Z,3.65
2023-04-07T05:24:36.166Z,3.66
2023-04-07T05:25:36.142Z,3.76
2023-04-07T05:26:36.122Z,3.79
2023-04-07T05:27:36.150Z,3.84
2023-04-07T05:28:36.107Z,3.87
2023-04-07T05:29:36.104Z,3.84
2023-04-07T05:30:36.070Z,3.84
2023-04-07T05:31:36.158Z,3.90
2023-04-07T05:32:36.101Z,3.90
2023-04-07T05:33:36.050Z,3.98
2023-04-07T05:34:36.032Z,3.96
2023-04-07T05:35:36.017Z,4.00
2023-04-07T05:36:36.011Z,4.02
2023-04-07T05:37:36.005Z,4.02
2023-04-07T05:38:36.011Z,4.12
2023-04-07T05:39:35.986Z,4.12
2023-04-07T05:40:37.503Z,4.16
2023-04-07T05:41:36.034Z,4.18
2023-04-07T05:42:35.960Z,4.30
2023-04-07T05:43:35.955Z,4.24
2023-04-07T05:44:35.988Z,4.42
2023-04-07T05:45:35.936Z,4.36
2023-04-07T05:46:35.899Z,4.40
2023-04-07T05:47:35.921Z,4.44
2023-04-07T05:48:36.014Z,4.45
2023-04-07T05:49:35.925Z,4.47
2023-04-07T05:50:35.873Z,4.45
2023-04-07T05:51:35.839Z,4.47
2023-04-07T05:52:35.825Z,4.58
2023-04-07T05:53:35.821Z,4.62
2023-04-07T05:54:35.812Z,4.62
2023-04-07T05:55:35.850Z,4.67
2023-04-07T05:56:35.785Z,4.73
2023-04-07T05:57:35.771Z,4.75
2023-04-07T05:58:35.758Z,4.75
2023-04-07T05:59:35.772Z,4.80
2023-04-07T06:00:35.766Z,4.89
2023-04-07T06:01:35.774Z,4.89
2023-04-07T06:02:35.914Z,4.85
2023-04-07T06:03:35.799Z,4.91
2023-04-07T06:04:35.713Z,4.94
2023-04-07T06:05:35.735Z,4.94
2023-04-07T06:06:35.696Z,4.97
2023-04-07T06:07:35.662Z,4.97
2023-04-07T06:08:35.685Z,5.06
2023-04-07T06:09:35.656Z,5.03
2023-04-07T06:10:35.630Z,5.06
2023-04-07T06:11:35.647Z,5.04
2023-04-07T06:12:35.632Z,5.00
2023-04-07T06:13:35.595Z,5.04
2023-04-07T06:14:35.613Z,5.02
2023-04-07T06:15:35.573Z,5.06
2023-04-07T06:16:35.618Z,5.12
2023-04-07T06:17:35.635Z,5.03
2023-04-07T06:18:35.553Z,5.07
2023-04-07T06:19:35.556Z,5.13
2023-04-07T06:20:35.559Z,5.13
2023-04-07T06:21:35.508Z,5.10
2023-04-07T06:22:35.505Z,5.13
2023-04-07T06:23:35.478Z,5.17
2023-04-07T06:24:35.466Z,5.15
2023-04-07T06:25:35.495Z,5.25
2023-04-07T06:26:35.479Z,5.21
2023-04-07T06:27:35.451Z,5.27
2023-04-07T06:28:35.438Z,5.31
2023-04-07T06:29:35.411Z,5.21
2023-04-07T06:30:35.433Z,5.25
2023-04-07T06:31:35.390Z,5.22
2023-04-07T06:32:35.449Z,5.30
2023-04-07T06:33:35.411Z,5.27
2023-04-07T06:34:35.361Z,5.35
2023-04-07T06:35:35.344Z,5.35
2023-04-07T06:36:35.357Z,5.39
2023-04-07T06:37:35.324Z,5.43
2023-04-07T06:38:35.337Z,5.42
2023-04-07T06:39:35.359Z,5.39
2023-04-07T06:40:35.287Z,5.40
2023-04-07T06:41:35.283Z,5.54
2023-04-07T06:42:35.278Z,5.46
2023-04-07T06:43:35.277Z,5.53
2023-04-07T06:44:35.280Z,5.51
2023-04-07T06:45:35.302Z,5.53
2023-04-07T06:46:35.307Z,5.60
2023-04-07T06:47:35.225Z,5.63
2023-04-07T06:48:35.199Z,5.57
2023-04-07T06:49:37.188Z,5.68
2023-04-07T06:50:35.190Z,5.63
2023-04-07T06:51:35.204Z,5.65
2023-04-07T06:52:35.167Z,5.64
2023-04-07T06:53:35.143Z,5.71
2023-04-07T06:54:35.155Z,5.83
2023-04-07T06:55:35.533Z,5.76
2023-04-07T06:56:35.127Z,5.75
2023-04-07T06:57:35.160Z,5.90
2023-04-07T06:58:35.086Z,5.99
2023-04-07T06:59:35.100Z,5.99
2023-04-07T07:00:35.080Z,6.12
2023-04-07T07:01:35.123Z,6.12
2023-04-07T07:02:35.291Z,6.14
2023-04-07T07:03:35.154Z,6.25
2023-04-07T07:04:35.099Z,6.25
2023-04-07T07:05:35.047Z,6.37
2023-04-07T07:06:34.993Z,6.33
2023-04-07T07:07:43.945Z,6.48
2023-04-07T07:08:35.264Z,6.41
2023-04-07T07:09:34.972Z,6.52
2023-04-07T07:10:34.974Z,6.58
2023-04-07T07:11:34.961Z,6.62
2023-04-07T07:12:34.956Z,6.61
2023-04-07T07:13:34.931Z,6.61
2023-04-07T07:14:34.950Z,6.64
2023-04-07T07:15:34.935Z,6.76
2023-04-07T07:16:34.885Z,6.73
2023-04-07T07:17:34.884Z,6.77
2023-04-07T07:18:34.875Z,6.73
2023-04-07T07:19:34.904Z,6.76
2023-04-07T07:20:34.838Z,6.89
2023-04-07T07:21:34.849Z,6.98
2023-04-07T07:22:34.866Z,7.03
2023-04-07T07:23:34.827Z,7.03
2023-04-07T07:24:34.811Z,7.10
2023-04-07T07:25:34.795Z,7.13
2023-04-07T07:26:34.967Z,7.15
2023-04-07T07:27:34.783Z,7.16
2023-04-07T07:28:34.771Z,7.31
2023-04-07T07:29:34.745Z,7.25
2023-04-07T07:30:34.745Z,7.28
2023-04-07T07:31:34.788Z,7.35
2023-04-07T07:32:34.728Z,7.34
2023-04-07T07:33:34.765Z,7.42
2023-04-07T07:34:34.700Z,7.34
2023-04-07T07:35:34.692Z,7.39
2023-04-07T07:36:34.684Z,7.35
2023-04-07T07:37:34.693Z,7.35
2023-04-07T07:38:36.196Z,7.32
2023-04-07T07:39:34.917Z,7.46
2023-04-07T07:40:34.636Z,7.34
2023-04-07T07:41:34.621Z,7.42
2023-04-07T07:42:34.592Z,7.45
2023-04-07T07:43:34.591Z,7.46
2023-04-07T07:44:34.589Z,7.50
2023-04-07T07:45:34.574Z,7.49
2023-04-07T07:46:34.620Z,7.45
2023-04-07T07:47:34.614Z,7.63
2023-04-07T07:48:34.534Z,7.61
2023-04-07T07:49:34.522Z,7.64
2023-04-07T07:50:34.502Z,7.63
2023-04-07T07:51:34.496Z,7.63
2023-04-07T07:52:34.548Z,7.55
2023-04-07T07:53:34.493Z,7.63
2023-04-07T07:54:34.458Z,7.71
2023-04-07T07:55:34.447Z,7.72
2023-04-07T07:56:34.442Z,7.71
2023-04-07T07:57:34.429Z,7.69
2023-04-07T07:58:34.481Z,7.83
2023-04-07T07:59:34.407Z,7.80
2023-04-07T08:00:34.409Z,7.79
2023-04-07T08:01:34.446Z,7.77
2023-04-07T08:02:34.487Z,7.79
2023-04-07T08:03:34.963Z,7.82
2023-04-07T08:04:34.441Z,7.82
2023-04-07T08:05:34.336Z,7.85
2023-04-07T08:06:34.323Z,7.79
2023-04-07T08:07:34.340Z,7.85
2023-04-07T08:08:34.325Z,7.75
2023-04-07T08:09:34.331Z,7.93
2023-04-07T08:10:34.421Z,7.95
2023-04-07T08:11:34.286Z,7.87
2023-04-07T08:12:34.256Z,8.00
2023-04-07T08:13:34.255Z,7.95
2023-04-07T08:14:34.241Z,7.97
2023-04-07T08:15:34.242Z,8.07
2023-04-07T08:16:34.322Z,8.11
2023-04-07T08:17:34.218Z,8.26
2023-04-07T08:18:34.188Z,8.25
2023-04-07T08:19:34.195Z,8.26
2023-04-07T08:20:34.170Z,8.29
2023-04-07T08:21:34.192Z,8.28
2023-04-07T08:22:34.234Z,8.38
2023-04-07T08:23:34.132Z,8.40
2023-04-07T08:24:34.147Z,8.34
2023-04-07T08:25:34.181Z,8.44
2023-04-07T08:26:34.112Z,8.33
2023-04-07T08:27:34.121Z,8.38
2023-04-07T08:28:34.093Z,8.38
2023-04-07T08:29:34.097Z,8.40
2023-04-07T08:30:34.055Z,8.38
2023-04-07T08:31:34.111Z,8.33
2023-04-07T08:32:34.086Z,8.36
2023-04-07T08:33:34.030Z,8.33
2023-04-07T08:34:34.052Z,8.33
2023-04-07T08:35:34.020Z,8.22
2023-04-07T08:36:34.045Z,8.23
2023-04-07T08:37:34.013Z,8.28
2023-04-07T08:38:33.980Z,8.25
2023-04-07T08:39:33.963Z,8.26
2023-04-07T08:40:33.985Z,8.23
2023-04-07T08:41:33.974Z,8.29
2023-04-07T08:42:33.920Z,8.29
2023-04-07T08:43:33.923Z,8.19
2023-04-07T08:44:33.919Z,8.29
2023-04-07T08:45:33.920Z,8.28
2023-04-07T08:46:33.907Z,8.30
2023-04-07T08:47:33.983Z,8.34
2023-04-07T08:48:33.862Z,8.22
2023-04-07T08:49:33.859Z,8.26
2023-04-07T08:50:33.828Z,8.29
2023-04-07T08:51:33.817Z,8.37
2023-04-07T08:52:33.806Z,8.40
2023-04-07T08:53:33.833Z,8.28
2023-04-07T08:54:33.791Z,8.30
2023-04-07T08:55:33.798Z,8.34
2023-04-07T08:56:33.760Z,8.30
2023-04-07T08:57:33.767Z,8.37
2023-04-07T08:58:33.753Z,8.28
2023-04-07T08:59:33.754Z,8.40
2023-04-07T09:00:33.754Z,8.43
2023-04-07T09:01:33.820Z,8.43
2023-04-07T09:02:33.897Z,8.45
2023-04-07T09:03:33.800Z,8.43
2023-04-07T09:04:33.723Z,8.44
2023-04-07T09:05:33.684Z,8.43
2023-04-07T09:06:33.733Z,8.40
2023-04-07T09:07:33.658Z,8.37
2023-04-07T09:08:33.638Z,8.38
2023-04-07T09:09:33.636Z,8.45
2023-04-07T09:10:33.628Z,8.44
2023-04-07T09:11:33.600Z,8.41
2023-04-07T09:12:33.607Z,8.43
2023-04-07T09:13:33.650Z,8.47
2023-04-07T09:14:33.560Z,8.52
2023-04-07T09:15:33.558Z,8.56
2023-04-07T09:16:33.623Z,8.59
2023-04-07T09:17:33.568Z,8.65
2023-04-07T09:18:33.532Z,8.62
2023-04-07T09:19:33.552Z,8.65
2023-04-07T09:20:33.493Z,8.68
2023-04-07T09:21:33.488Z,8.68
2023-04-07T09:22:33.473Z,8.74
2023-04-07T09:23:33.490Z,8.70
2023-04-07T09:24:33.472Z,8.71
2023-04-07T09:25:33.447Z,8.80
2023-04-07T09:26:33.442Z,8.74
2023-04-07T09:27:33.438Z,8.84
2023-04-07T09:28:33.409Z,8.86
2023-04-07T09:29:33.413Z,8.86
2023-04-07T09:30:33.396Z,8.92
2023-04-07T09:31:33.452Z,8.89
2023-04-07T09:32:33.395Z,8.94
2023-04-07T09:33:33.345Z,8.89
2023-04-07T09:34:33.371Z,8.99
2023-04-07T09:35:33.340Z,8.89
2023-04-07T09:36:33.318Z,8.91
2023-04-07T09:37:33.330Z,9.04
2023-04-07T09:38:33.322Z,9.05
2023-04-07T09:39:33.299Z,9.04
2023-04-07T09:40:33.285Z,9.10
2023-04-07T09:41:33.310Z,9.05
2023-04-07T09:42:33.246Z,9.05
2023-04-07T09:43:33.256Z,9.14
2023-04-07T09:44:33.252Z,9.11
2023-04-07T09:45:35.786Z,9.26
2023-04-07T09:46:33.248Z,9.26
2023-04-07T09:47:33.231Z,9.21
2023-04-07T09:48:33.194Z,9.31
2023-04-07T09:49:33.194Z,9.18
2023-04-07T09:50:33.177Z,9.20
2023-04-07T09:51:33.159Z,9.26
2023-04-07T09:52:33.158Z,9.39
2023-04-07T09:53:33.120Z,9.48
2023-04-07T09:54:33.130Z,9.54
2023-04-07T09:55:33.111Z,9.68
2023-04-07T09:56:33.102Z,9.74
2023-04-07T09:57:33.091Z,9.68
2023-04-07T09:58:33.068Z,9.78
2023-04-07T09:59:33.063Z,9.79
2023-04-07T10:00:33.076Z,9.75
2023-04-07T10:01:33.142Z,9.78
2023-04-07T10:02:33.138Z,9.89
2023-04-07T10:03:33.136Z,9.90
2023-04-07T10:04:33.108Z,9.79
2023-04-07T10:05:33.008Z,9.76
2023-04-07T10:06:32.986Z,9.78
2023-04-07T10:07:32.970Z,9.89
2023-04-07T10:08:32.975Z,9.96
2023-04-07T10:09:32.980Z,10.02
2023-04-07T10:10:32.951Z,10.01
2023-04-07T10:11:32.941Z,9.96
2023-04-07T10:12:32.919Z,9.91
2023-04-07T10:13:32.906Z,9.87
2023-04-07T10:14:32.907Z,9.94
2023-04-07T10:15:32.937Z,10.04
2023-04-07T10:16:32.960Z,10.07
2023-04-07T10:17:32.964Z,10.08
2023-04-07T10:18:33.465Z,10.22
2023-04-07T10:19:32.847Z,10.22
2023-04-07T10:20:32.838Z,10.23
2023-04-07T10:21:33.026Z,10.41
2023-04-07T10:22:32.803Z,10.47
2023-04-07T10:23:32.832Z,10.40
2023-04-07T10:24:32.805Z,10.55
2023-04-07T10:25:32.790Z,10.64
2023-04-07T10:26:32.780Z,10.74
2023-04-07T10:27:32.762Z,10.67
2023-04-07T10:28:32.737Z,10.61
2023-04-07T10:29:32.746Z,10.51
2023-04-07T10:30:32.727Z,10.61
2023-04-07T10:31:32.765Z,10.55
2023-04-07T10:32:32.748Z,10.60
2023-04-07T10:33:32.743Z,10.61
2023-04-07T10:34:32.666Z,10.76
2023-04-07T10:35:32.714Z,10.70
2023-04-07T10:36:32.659Z,10.85
2023-04-07T10:37:32.663Z,10.86
2023-04-07T10:38:32.620Z,10.86
2023-04-07T10:39:32.615Z,10.88
2023-04-07T10:40:32.609Z,10.81
2023-04-07T10:41:32.607Z,10.86
2023-04-07T10:42:32.581Z,10.79
2023-04-07T10:43:32.590Z,10.67
2023-04-07T10:44:32.556Z,10.74
2023-04-07T10:45:32.549Z,10.74
2023-04-07T10:46:32.626Z,10.84
2023-04-07T10:47:32.592Z,10.89
2023-04-07T10:48:32.536Z,10.86
2023-04-07T10:49:32.520Z,10.94
2023-04-07T10:50:32.499Z,10.79
2023-04-07T10:51:32.487Z,10.78
2023-04-07T10:52:32.498Z,10.71
2023-04-07T10:53:32.517Z,10.74
2023-04-07T10:54:32.449Z,10.60
2023-04-07T10:55:32.449Z,10.61
2023-04-07T10:56:32.420Z,10.70
2023-04-07T10:57:32.427Z,10.68
2023-04-07T10:58:32.405Z,10.74
2023-04-07T10:59:32.404Z,10.85
2023-04-07T11:00:32.376Z,10.99
2023-04-07T11:01:32.431Z,10.99
2023-04-07T11:02:32.797Z,11.11
2023-04-07T11:03:32.470Z,11.02
2023-04-07T11:04:32.391Z,10.86
2023-04-07T11:05:32.368Z,10.74
2023-04-07T11:06:32.352Z,10.81
2023-04-07T11:07:32.298Z,10.71
2023-04-07T11:08:32.325Z,10.71
2023-04-07T11:09:32.274Z,10.74
2023-04-07T11:10:32.298Z,10.81
2023-04-07T11:11:32.296Z,10.82
2023-04-07T11:12:32.243Z,11.00
2023-04-07T11:13:32.261Z,11.03
2023-04-07T11:14:32.231Z,11.07
2023-04-07T11:15:32.215Z,11.25
2023-04-07T11:16:32.380Z,11.19
2023-04-07T11:17:32.237Z,11.24
2023-04-07T11:18:32.176Z,11.24
2023-04-07T11:19:32.185Z,11.24
2023-04-07T11:20:32.168Z,11.27
2023-04-07T11:21:32.169Z,11.18
2023-04-07T11:22:32.151Z,11.21
2023-04-07T11:23:32.192Z,11.10
2023-04-07T11:24:32.111Z,11.03
2023-04-07T11:25:32.113Z,10.81
2023-04-07T11:26:32.089Z,10.84
2023-04-07T11:27:32.091Z,10.88
2023-04-07T11:28:32.098Z,10.86
2023-04-07T11:29:32.052Z,10.92
2023-04-07T11:30:32.040Z,10.94
2023-04-07T11:31:32.121Z,10.89
2023-04-07T11:32:32.086Z,10.94
2023-04-07T11:33:32.035Z,11.09
2023-04-07T11:34:32.009Z,11.02
2023-04-07T11:35:32.017Z,11.09
2023-04-07T11:36:31.975Z,11.07
2023-04-07T11:37:31.996Z,11.18
2023-04-07T11:38:31.967Z,11.19
2023-04-07T11:39:31.953Z,11.18
2023-04-07T11:40:31.964Z,11.18
2023-04-07T11:41:31.947Z,11.22
2023-04-07T11:42:31.913Z,11.24
2023-04-07T11:43:31.898Z,11.15
2023-04-07T11:44:31.903Z,11.00
2023-04-07T11:45:31.872Z,10.96
2023-04-07T11:46:31.937Z,10.97
2023-04-07T11:47:31.925Z,11.09
2023-04-07T11:48:31.911Z,11.00
2023-04-07T11:49:31.924Z,11.09
2023-04-07T11:50:31.829Z,11.09
2023-04-07T11:51:31.806Z,11.06
2023-04-07T11:52:31.799Z,11.21
2023-04-07T11:53:31.837Z,11.27
2023-04-07T11:54:31.816Z,11.39
2023-04-07T11:55:31.782Z,11.32
2023-04-07T11:56:31.779Z,11.27
2023-04-07T11:57:31.751Z,11.36
2023-04-07T11:58:31.746Z,11.44
2023-04-07T11:59:31.721Z,11.46
2023-04-07T12:00:31.743Z,11.61
2023-04-07T12:01:31.750Z,11.60
2023-04-07T12:02:31.840Z,11.49
2023-04-07T12:03:31.811Z,11.46
2023-04-07T12:04:31.854Z,11.42
2023-04-07T12:05:31.662Z,11.44
2023-04-07T12:06:31.675Z,11.47
2023-04-07T12:07:31.675Z,11.70
2023-04-07T12:08:31.619Z,11.67
2023-04-07T12:09:31.638Z,11.64
2023-04-07T12:10:31.635Z,11.73
2023-04-07T12:11:31.606Z,11.72
2023-04-07T12:12:31.586Z,11.96
2023-04-07T12:13:31.611Z,12.04
2023-04-07T12:14:31.555Z,12.07
2023-04-07T12:15:31.545Z,12.19
2023-04-07T12:16:31.686Z,12.02
2023-04-07T12:17:31.550Z,11.88
2023-04-07T12:18:31.534Z,11.85
2023-04-07T12:19:31.498Z,11.70
2023-04-07T12:20:31.493Z,11.73
2023-04-07T12:21:31.486Z,11.67
2023-04-07T12:22:31.483Z,11.62
2023-04-07T12:23:31.455Z,11.52
2023-04-07T12:24:31.462Z,11.51
2023-04-07T12:25:31.454Z,11.65
2023-04-07T12:26:31.420Z,11.65
2023-04-07T12:27:42.222Z,11.69
2023-04-07T12:28:32.413Z,11.65
2023-04-07T12:29:31.432Z,11.72
2023-04-07T12:30:31.393Z,11.73
2023-04-07T12:31:31.375Z,11.90
2023-04-07T12:32:31.392Z,12.04
2023-04-07T12:33:32.002Z,12.10
2023-04-07T12:34:31.370Z,12.20
2023-04-07T12:35:31.440Z,12.28
2023-04-07T12:36:31.333Z,12.27
2023-04-07T12:37:31.299Z,12.29
2023-04-07T12:38:31.327Z,12.27
2023-04-07T12:39:31.284Z,12.23
2023-04-07T12:40:31.276Z,12.21
2023-04-07T12:41:31.325Z,12.29
2023-04-07T12:42:31.249Z,12.23
2023-04-07T12:43:31.250Z,12.21
2023-04-07T12:44:31.221Z,12.20
2023-04-07T12:45:31.258Z,12.17
2023-04-07T12:46:31.361Z,12.27
2023-04-07T12:47:31.223Z,12.32
2023-04-07T12:48:31.187Z,12.35
2023-04-07T12:49:31.183Z,12.39
2023-04-07T12:50:31.191Z,12.31
2023-04-07T12:51:31.172Z,12.27
2023-04-07T12:52:31.149Z,12.07
2023-04-07T12:53:31.150Z,11.95
2023-04-07T12:54:31.109Z,11.95
2023-04-07T12:55:31.114Z,12.04
2023-04-07T12:56:31.093Z,12.01
2023-04-07T12:57:31.121Z,12.14
2023-04-07T12:58:31.087Z,12.09
2023-04-07T12:59:31.059Z,12.05
2023-04-07T13:00:31.043Z,11.86
2023-04-07T13:01:31.123Z,11.76
2023-04-07T13:02:31.203Z,11.70
2023-04-07T13:03:31.141Z,11.73
2023-04-07T13:04:31.207Z,11.80
2023-04-07T13:05:30.984Z,11.86
2023-04-07T13:06:30.993Z,11.85
2023-04-07T13:07:30.962Z,11.98
2023-04-07T13:08:30.958Z,11.99
2023-04-07T13:09:30.956Z,11.83
2023-04-07T13:10:30.964Z,11.90
2023-04-07T13:11:30.916Z,11.83
2023-04-07T13:12:30.910Z,11.86